Time;durP1;ratioP1;P1;durP2;ratioP2;P2;SDS_P1;SDS_P2;PMS_P1;PMS_P2;Temp;Humidity;BMP_temperature;BMP_pressure;BME280_temperature;BME280_humidity;BME280_pressure;Samples;Min_cycle;Max_cycle;Signal;HPM_P1;HPM_P2
2022/02/07 00:02:13;;;;;;;0.30;0.30;;;2.40;99.90;;;;;;5074659;28;20433;-79
2022/02/07 00:04:41;;;;;;;0.30;0.30;;;2.40;99.90;;;;;;5074581;28;20426;-79
2022/02/07 00:07:09;;;;;;;0.30;0.30;;;2.30;99.90;;;;;;5074419;28;20556;-80
2022/02/07 00:09:36;;;;;;;0.30;0.30;;;2.20;99.90;;;;;;5074174;28;20862;-80
2022/02/07 00:12:04;;;;;;;0.30;0.30;;;2.00;99.90;;;;;;5074033;28;20480;-80
2022/02/07 00:14:31;;;;;;;0.30;0.30;;;1.80;99.90;;;;;;5074381;28;20452;-81
2022/02/07 00:16:59;;;;;;;0.30;0.30;;;1.60;99.90;;;;;;5074561;28;20464;-80
2022/02/07 00:19:28;;;;;;;0.30;0.30;;;1.60;99.90;;;;;;5074301;28;20444;-80
2022/02/07 00:21:55;;;;;;;0.30;0.30;;;1.50;99.90;;;;;;5074215;28;20494;-81
2022/02/07 00:24:22;;;;;;;0.30;0.30;;;1.40;99.90;;;;;;5074162;28;20449;-81
2022/02/07 00:26:49;;;;;;;0.30;0.20;;;1.30;99.90;;;;;;5074095;28;20465;-81
2022/02/07 00:29:16;;;;;;;0.30;0.30;;;1.30;99.90;;;;;;5073814;28;20445;-82
2022/02/07 00:31:43;;;;;;;0.30;0.30;;;1.30;99.90;;;;;;5073984;28;20801;-82
2022/02/07 00:34:11;;;;;;;0.30;0.30;;;1.20;99.90;;;;;;5074007;28;20455;-83
2022/02/07 00:36:38;;;;;;;0.30;0.30;;;1.20;99.90;;;;;;5074711;28;20469;-84
2022/02/07 00:39:10;;;;;;;0.30;0.30;;;1.10;99.90;;;;;;5073936;28;20453;-84
2022/02/07 00:41:43;;;;;;;0.30;0.27;;;1.10;99.90;;;;;;5073647;28;20908;-84
2022/02/07 00:44:14;;;;;;;0.30;0.30;;;1.20;99.90;;;;;;5073572;28;20912;-85
2022/02/07 00:46:48;;;;;;;0.30;0.30;;;1.10;99.90;;;;;;5073813;28;20472;-84
2022/02/07 00:49:17;;;;;;;0.30;0.30;;;1.10;99.90;;;;;;5074069;28;20425;-84
2022/02/07 00:51:44;;;;;;;0.30;0.30;;;1.10;99.90;;;;;;5073702;28;20452;-84
2022/02/07 00:54:11;;;;;;;0.30;0.30;;;1.10;99.90;;;;;;5073735;28;20440;-83
2022/02/07 00:56:38;;;;;;;0.30;0.20;;;1.10;99.90;;;;;;5073601;28;20476;-83
2022/02/07 00:59:05;;;;;;;0.30;0.30;;;1.10;99.90;;;;;;5073653;28;20503;-83
2022/02/07 01:01:32;;;;;;;0.30;0.30;;;1.10;99.90;;;;;;5073649;28;20470;-79
2022/02/07 01:03:59;;;;;;;0.30;0.30;;;1.10;99.90;;;;;;5073595;28;20435;-79
2022/02/07 01:06:27;;;;;;;0.30;0.30;;;1.10;99.90;;;;;;5073495;28;20473;-79
2022/02/07 01:09:08;;;;;;;0.30;0.30;;;1.20;99.90;;;;;;5073032;28;20445;-79
2022/02/07 01:11:49;;;;;;;0.30;0.30;;;1.20;99.90;;;;;;5073532;28;20445;-79
2022/02/07 01:14:27;;;;;;;0.30;0.30;;;1.20;99.90;;;;;;5073405;28;20971;-79
2022/02/07 01:17:41;;;;;;;0.30;0.30;;;1.20;99.90;;;;;;5073116;28;20983;-79
2022/02/07 01:20:43;;;;;;;0.30;0.30;;;1.20;99.90;;;;;;5072817;28;20880;-79
2022/02/07 01:23:26;;;;;;;0.30;0.30;;;1.20;99.90;;;;;;5072897;28;20436;-80
2022/02/07 01:48:09;;;;;;;0.30;0.30;;;1.40;99.90;;;;;;5072864;28;20505;-81
2022/02/07 01:53:31;;;;;;;0.30;0.30;;;1.40;99.90;;;;;;5073089;28;20575;-82
2022/02/07 01:56:03;;;;;;;0.30;0.30;;;1.40;99.90;;;;;;5073186;28;20461;-82
2022/02/07 01:58:30;;;;;;;0.30;0.20;;;1.40;99.90;;;;;;5073084;28;20536;-82
2022/02/07 02:00:57;;;;;;;0.30;0.30;;;1.50;99.90;;;;;;5072996;28;20449;-81
2022/02/07 02:03:24;;;;;;;0.30;0.30;;;1.50;99.90;;;;;;5072684;28;20837;-81
2022/02/07 02:05:52;;;;;;;0.30;0.20;;;1.50;99.90;;;;;;5072889;28;20478;-81
2022/02/07 02:08:20;;;;;;;0.30;0.20;;;1.50;99.90;;;;;;5072851;28;20445;-81
2022/02/07 02:10:50;;;;;;;0.30;0.20;;;1.50;99.90;;;;;;5072466;28;20558;-82
2022/02/07 02:13:22;;;;;;;0.30;0.30;;;1.60;99.90;;;;;;5072926;28;20867;-81
2022/02/07 02:15:56;;;;;;;0.30;0.30;;;1.60;99.90;;;;;;5072799;28;20508;-82
2022/02/07 02:33:42;;;;;;;0.30;0.30;;;1.70;99.90;;;;;;5056092;28;20583;-82
2022/02/07 02:45:31;;;;;;;0.30;0.30;;;1.70;99.90;;;;;;5075890;28;20396;-81
2022/02/07 02:48:03;;;;;;;0.30;0.30;;;1.70;99.90;;;;;;5055792;28;20983;-81
2022/02/07 02:50:32;;;;;;;0.30;0.30;;;1.70;99.90;;;;;;5056018;28;20466;-80
2022/02/07 02:53:02;;;;;;;0.30;0.30;;;1.70;99.90;;;;;;5056333;28;20474;-80
2022/02/07 02:55:31;;;;;;;0.30;0.30;;;1.70;99.90;;;;;;5055843;28;20445;-80
2022/02/07 02:57:59;;;;;;;0.30;0.30;;;1.60;99.90;;;;;;5055902;28;20454;-80
2022/02/07 03:00:26;;;;;;;0.30;0.30;;;1.60;99.90;;;;;;5055907;28;20434;-80
2022/02/07 03:02:53;;;;;;;0.30;0.30;;;1.60;99.90;;;;;;5055472;28;20937;-79
2022/02/07 03:05:20;;;;;;;0.30;0.30;;;1.60;99.90;;;;;;5055486;28;20441;-79
2022/02/07 03:07:46;;;;;;;0.30;0.30;;;1.60;99.90;;;;;;5055283;28;20465;-79
2022/02/07 03:10:23;;;;;;;0.30;0.30;;;1.60;99.90;;;;;;5055663;28;20453;-79
2022/02/07 03:13:03;;;;;;;0.30;0.30;;;1.60;99.90;;;;;;5055560;28;20523;-79
2022/02/07 03:18:14;;;;;;;0.30;0.20;;;1.60;99.90;;;;;;5055562;28;20479;-79
2022/02/07 03:20:41;;;;;;;0.30;0.30;;;1.60;99.90;;;;;;5055433;28;20468;-79
2022/02/07 03:23:08;;;;;;;0.30;0.20;;;1.60;99.90;;;;;;5055424;28;20450;-79
2022/02/07 03:25:34;;;;;;;0.30;0.30;;;1.50;99.90;;;;;;5055034;28;20461;-79
2022/02/07 03:28:03;;;;;;;0.30;0.27;;;1.50;99.90;;;;;;5055313;28;20492;-78
2022/02/07 03:30:30;;;;;;;0.50;0.50;;;1.40;99.90;;;;;;5055253;28;20449;-79
2022/02/07 03:32:57;;;;;;;0.30;0.20;;;1.40;99.90;;;;;;5054970;28;20506;-79
2022/02/07 03:35:24;;;;;;;0.30;0.30;;;1.40;99.90;;;;;;5054824;28;20975;-78
2022/02/07 03:37:50;;;;;;;0.30;0.30;;;1.30;99.90;;;;;;5054724;28;20478;-78
2022/02/07 03:40:17;;;;;;;0.30;0.20;;;1.30;99.90;;;;;;5055091;28;20457;-78
2022/02/07 03:42:44;;;;;;;0.30;0.20;;;1.30;99.90;;;;;;5054741;28;20821;-78
2022/02/07 03:45:13;;;;;;;0.30;0.30;;;1.30;99.90;;;;;;5054695;28;20448;-78
2022/02/07 03:47:39;;;;;;;0.30;0.20;;;1.40;99.90;;;;;;5054916;28;20481;-78
2022/02/07 03:50:08;;;;;;;0.30;0.30;;;1.40;99.90;;;;;;5054888;28;20450;-78
2022/02/07 03:52:34;;;;;;;0.30;0.30;;;1.40;99.90;;;;;;5054719;28;20468;-78
2022/02/07 03:55:01;;;;;;;0.30;0.30;;;1.40;99.90;;;;;;5054815;28;20442;-78
2022/02/07 03:57:28;;;;;;;0.30;0.30;;;1.50;99.90;;;;;;5054380;28;20476;-78
2022/02/07 03:59:55;;;;;;;0.30;0.30;;;1.60;99.90;;;;;;5054424;28;20952;-79
2022/02/07 04:02:23;;;;;;;0.30;0.30;;;1.50;99.90;;;;;;5054669;28;20532;-79
2022/02/07 04:04:57;;;;;;;0.30;0.30;;;1.40;99.90;;;;;;5054622;28;20445;-79
2022/02/07 04:07:24;;;;;;;0.30;0.30;;;1.20;99.90;;;;;;5054523;28;20478;-80
2022/02/07 04:09:54;;;;;;;0.30;0.30;;;1.10;99.90;;;;;;5054504;28;20424;-80
2022/02/07 04:12:25;;;;;;;0.30;0.20;;;1.10;99.90;;;;;;5054212;28;20533;-79
2022/02/07 04:14:51;;;;;;;0.30;0.30;;;1.10;99.90;;;;;;5054075;28;20560;-79
2022/02/07 04:17:22;;;;;;;0.30;0.30;;;1.10;99.90;;;;;;5054111;28;20434;-79
2022/02/07 04:19:57;;;;;;;0.30;0.30;;;1.10;99.90;;;;;;5054351;28;20462;-79
2022/02/07 04:22:24;;;;;;;0.30;0.30;;;1.10;99.90;;;;;;5054332;28;20433;-79
2022/02/07 04:24:51;;;;;;;0.30;0.30;;;1.00;99.90;;;;;;5054180;28;20450;-79
2022/02/07 04:27:18;;;;;;;0.30;0.30;;;1.10;99.90;;;;;;5054112;28;20449;-79
2022/02/07 04:29:45;;;;;;;0.30;0.20;;;1.10;99.90;;;;;;5054190;28;20449;-79
2022/02/07 04:32:11;;;;;;;0.30;0.30;;;1.10;99.90;;;;;;5054101;28;20446;-79
2022/02/07 04:34:39;;;;;;;0.30;0.30;;;1.10;99.90;;;;;;5053985;28;20492;-79
2022/02/07 04:37:07;;;;;;;0.30;0.30;;;1.10;99.90;;;;;;5053602;28;20481;-79
2022/02/07 04:39:34;;;;;;;0.30;0.30;;;1.10;99.90;;;;;;5053722;28;20441;-79
2022/02/07 04:42:04;;;;;;;0.30;0.20;;;1.10;99.90;;;;;;5053580;28;20462;-79
2022/02/07 04:44:38;;;;;;;0.30;0.30;;;1.00;99.90;;;;;;5054415;28;20466;-79
2022/02/07 04:47:14;;;;;;;0.30;0.30;;;1.00;99.90;;;;;;5053796;28;20459;-79
2022/02/07 04:50:03;;;;;;;0.30;0.20;;;1.00;99.90;;;;;;5054549;28;20772;-79
2022/02/07 04:52:56;;;;;;;0.30;0.30;;;1.00;99.90;;;;;;5053262;28;20495;-79
2022/02/07 04:55:34;;;;;;;0.30;0.30;;;0.90;99.90;;;;;;5053727;28;20469;-79
2022/02/07 04:58:05;;;;;;;0.30;0.30;;;0.90;99.90;;;;;;5053382;28;20440;-78
2022/02/07 05:00:41;;;;;;;0.30;0.30;;;0.90;99.90;;;;;;5053673;28;20434;-79
2022/02/07 05:03:13;;;;;;;0.30;0.30;;;0.90;99.90;;;;;;5053641;28;20413;-79
2022/02/07 05:13:55;;;;;;;0.30;0.30;;;0.70;99.90;;;;;;5053408;28;20493;-78
2022/02/07 05:16:25;;;;;;;0.30;0.30;;;0.70;99.90;;;;;;5053310;28;20536;-78
2022/02/07 05:18:56;;;;;;;0.30;0.30;;;0.70;99.90;;;;;;5053815;28;20453;-78
2022/02/07 05:21:23;;;;;;;0.30;0.20;;;0.70;99.90;;;;;;5053534;28;20446;-78
2022/02/07 05:23:53;;;;;;;0.30;0.20;;;0.60;99.90;;;;;;5053345;28;20445;-78
2022/02/07 05:26:20;;;;;;;0.30;0.30;;;0.60;99.90;;;;;;5053223;28;20461;-78
2022/02/07 05:28:47;;;;;;;0.30;0.30;;;0.60;99.90;;;;;;5053245;28;20449;-78
2022/02/07 05:31:15;;;;;;;0.30;0.20;;;0.60;99.90;;;;;;5053250;28;20553;-78
2022/02/07 05:33:42;;;;;;;0.30;0.30;;;0.60;99.90;;;;;;5053116;28;20488;-78
2022/02/07 05:36:10;;;;;;;0.30;0.30;;;0.60;99.90;;;;;;5052756;28;20501;-78
2022/02/07 05:38:39;;;;;;;0.30;0.20;;;0.60;99.90;;;;;;5053217;28;20531;-78
2022/02/07 05:41:08;;;;;;;0.30;0.30;;;0.60;99.90;;;;;;5053140;28;20446;-78
2022/02/07 05:43:37;;;;;;;0.30;0.30;;;0.60;99.90;;;;;;5053116;28;20546;-78
2022/02/07 05:46:04;;;;;;;0.30;0.30;;;0.70;99.90;;;;;;5053023;28;20486;-78
2022/02/07 05:48:31;;;;;;;0.30;0.30;;;0.60;99.90;;;;;;5052769;28;20425;-78
2022/02/07 05:50:58;;;;;;;0.30;0.30;;;0.60;99.90;;;;;;5053108;28;20898;-78
2022/02/07 05:53:25;;;;;;;0.30;0.30;;;0.60;99.90;;;;;;5053031;28;20480;-78
2022/02/07 05:55:51;;;;;;;0.30;0.30;;;0.60;99.90;;;;;;5052623;28;20466;-78
2022/02/07 05:58:19;;;;;;;0.30;0.30;;;0.50;99.90;;;;;;5053057;28;20452;-78
2022/02/07 06:00:46;;;;;;;0.30;0.30;;;0.50;99.90;;;;;;5052666;28;20508;-78
2022/02/07 06:03:13;;;;;;;0.30;0.20;;;0.50;99.90;;;;;;5053002;28;20441;-78
2022/02/07 06:05:40;;;;;;;0.30;0.30;;;0.60;99.90;;;;;;5055975;28;20805;-78
2022/02/07 06:08:06;;;;;;;0.30;0.30;;;0.60;99.90;;;;;;5057425;28;20799;-78
2022/02/07 06:10:33;;;;;;;0.30;0.30;;;0.60;99.90;;;;;;5056783;28;20445;-78
2022/02/07 06:13:00;;;;;;;0.30;0.30;;;0.60;99.90;;;;;;5056764;28;20427;-78
2022/02/07 06:15:28;;;;;;;0.30;0.30;;;0.60;99.90;;;;;;5056274;28;20524;-78
2022/02/07 06:17:58;;;;;;;0.30;0.30;;;0.70;99.90;;;;;;5056329;28;20968;-78
2022/02/07 06:20:25;;;;;;;0.83;0.83;;;0.70;99.90;;;;;;5056536;28;20445;-78
2022/02/07 06:22:52;;;;;;;0.30;0.30;;;0.70;99.90;;;;;;5056524;28;20509;-78
2022/02/07 06:25:19;;;;;;;0.30;0.30;;;0.70;99.90;;;;;;5056522;28;20442;-78
2022/02/07 06:27:46;;;;;;;0.30;0.30;;;0.70;99.90;;;;;;5056110;28;20853;-78
2022/02/07 06:30:12;;;;;;;0.30;0.30;;;0.70;99.90;;;;;;5056435;28;20503;-78
2022/02/07 06:32:41;;;;;;;0.30;0.30;;;0.70;99.90;;;;;;5056248;28;20477;-78
2022/02/07 06:35:09;;;;;;;0.30;0.30;;;0.70;99.90;;;;;;5056310;28;20485;-78
2022/02/07 06:37:36;;;;;;;0.30;0.20;;;0.60;99.90;;;;;;5055740;28;20931;-78
2022/02/07 06:40:04;;;;;;;0.30;0.30;;;0.60;99.90;;;;;;5056276;28;20441;-78
2022/02/07 06:42:31;;;;;;;0.30;0.30;;;0.60;99.90;;;;;;5056234;28;20432;-79
2022/02/07 06:44:57;;;;;;;0.30;0.30;;;0.70;99.90;;;;;;5056209;28;20450;-78
2022/02/07 06:47:24;;;;;;;0.30;0.30;;;0.70;99.90;;;;;;5056061;28;20466;-78
2022/02/07 06:49:52;;;;;;;0.30;0.30;;;0.80;99.90;;;;;;5055763;28;20958;-78
2022/02/07 06:52:19;;;;;;;0.30;0.30;;;0.80;99.90;;;;;;5055980;28;20453;-78
2022/02/07 06:54:46;;;;;;;0.30;0.30;;;0.80;99.90;;;;;;5055896;28;20493;-78
2022/02/07 06:57:13;;;;;;;0.30;0.30;;;0.80;99.90;;;;;;5055868;28;20470;-78
2022/02/07 06:59:42;;;;;;;0.30;0.30;;;0.70;99.90;;;;;;5055628;28;20917;-78
2022/02/07 07:02:11;;;;;;;0.30;0.30;;;0.70;99.90;;;;;;5055852;28;20541;-78
2022/02/07 07:04:38;;;;;;;0.30;0.30;;;0.60;99.90;;;;;;5055558;28;20484;-78
2022/02/07 07:07:06;;;;;;;0.30;0.30;;;0.60;99.90;;;;;;5055674;28;20474;-78
2022/02/07 07:09:34;;;;;;;0.30;0.30;;;0.60;99.90;;;;;;5055655;28;20442;-79
2022/02/07 07:12:04;;;;;;;0.30;0.30;;;0.60;99.90;;;;;;5056168;28;20450;-78
2022/02/07 07:14:40;;;;;;;0.30;0.30;;;0.60;99.90;;;;;;5055511;28;20492;-78
2022/02/07 07:17:07;;;;;;;0.30;0.30;;;0.60;99.90;;;;;;5054839;28;20833;-78
2022/02/07 07:19:34;;;;;;;0.30;0.30;;;0.70;99.90;;;;;;5055526;28;20412;-78
2022/02/07 07:22:01;;;;;;;0.30;0.30;;;0.80;99.90;;;;;;5055451;28;20418;-78
2022/02/07 07:24:29;;;;;;;0.30;0.30;;;0.90;99.90;;;;;;5055166;28;20421;-78
2022/02/07 07:26:56;;;;;;;0.30;0.30;;;1.00;99.90;;;;;;5055289;28;20466;-78
2022/02/07 07:29:27;;;;;;;8.40;1.03;;;1.10;99.90;;;;;;5055338;28;20499;-78
2022/02/07 07:31:59;;;;;;;0.30;0.30;;;1.20;99.90;;;;;;5055271;28;20440;-78
2022/02/07 07:34:26;;;;;;;0.30;0.30;;;1.20;99.90;;;;;;5054897;28;21000;-78
2022/02/07 07:36:53;;;;;;;0.30;0.27;;;1.20;99.90;;;;;;5054759;28;20489;-78
2022/02/07 07:39:20;;;;;;;0.30;0.30;;;1.20;99.90;;;;;;5054831;28;20945;-78
2022/02/07 07:41:48;;;;;;;0.30;0.30;;;1.30;99.90;;;;;;5054956;28;20868;-78
2022/02/07 07:44:17;;;;;;;0.30;0.30;;;1.40;99.90;;;;;;5054793;28;20430;-78
2022/02/07 07:46:45;;;;;;;0.30;0.30;;;1.50;99.90;;;;;;5054610;28;21007;-78
2022/02/07 07:49:17;;;;;;;0.30;0.30;;;1.40;99.90;;;;;;5054652;28;20983;-78
2022/02/07 07:51:47;;;;;;;0.30;0.30;;;1.30;99.90;;;;;;5054960;28;20434;-78
2022/02/07 07:54:22;;;;;;;0.30;0.30;;;1.30;99.90;;;;;;5054483;28;20976;-78
2022/02/07 08:02:23;;;;;;;0.30;0.30;;;1.20;99.90;;;;;;5054805;28;20547;-78
2022/02/07 08:04:50;;;;;;;0.30;0.30;;;1.10;99.90;;;;;;5054654;28;20430;-78
2022/02/07 08:07:20;;;;;;;0.30;0.30;;;1.20;99.90;;;;;;5054211;28;20470;-78
2022/02/07 08:12:32;;;;;;;0.30;0.30;;;1.10;99.90;;;;;;5052528;28;20863;-78
2022/02/07 08:14:59;;;;;;;0.30;0.20;;;1.20;99.90;;;;;;5054451;28;20469;-78
2022/02/07 08:17:26;;;;;;;0.30;0.20;;;1.20;99.90;;;;;;5054347;28;20474;-77
2022/02/07 08:19:53;;;;;;;0.30;0.30;;;1.30;99.90;;;;;;5054395;28;20528;-78
2022/02/07 08:22:23;;;;;;;0.30;0.30;;;1.20;99.90;;;;;;5054350;28;20806;-78
2022/02/07 08:24:55;;;;;;;0.30;0.20;;;1.30;99.90;;;;;;5054289;28;20445;-78
2022/02/07 08:27:22;;;;;;;0.30;0.30;;;1.30;99.90;;;;;;5053483;28;20465;-78
2022/02/07 08:29:51;;;;;;;0.30;0.30;;;1.40;99.90;;;;;;5053978;28;20485;-77
2022/02/07 08:32:18;;;;;;;0.30;0.30;;;1.40;99.90;;;;;;5054111;28;20457;-77
2022/02/07 08:34:45;;;;;;;0.40;0.40;;;1.50;99.90;;;;;;5054020;28;20477;-77
2022/02/07 08:37:12;;;;;;;0.30;0.30;;;1.60;99.90;;;;;;5053486;28;20618;-77
2022/02/07 08:39:39;;;;;;;0.30;0.30;;;1.60;99.90;;;;;;5054015;28;20473;-77
2022/02/07 08:42:06;;;;;;;0.30;0.30;;;1.70;99.90;;;;;;5053792;28;20480;-77
2022/02/07 08:44:33;;;;;;;0.30;0.30;;;1.70;99.90;;;;;;5053876;28;20453;-77
2022/02/07 08:47:02;;;;;;;0.30;0.30;;;1.90;99.90;;;;;;5053775;28;20445;-77
2022/02/07 08:49:28;;;;;;;0.30;0.30;;;2.10;99.90;;;;;;5053825;28;20450;-77
2022/02/07 08:51:55;;;;;;;0.30;0.20;;;2.40;99.90;;;;;;5053703;28;20843;-77
2022/02/07 08:54:25;;;;;;;0.30;0.30;;;2.70;99.90;;;;;;5053354;28;21028;-77
2022/02/07 08:56:56;;;;;;;0.30;0.20;;;3.00;99.90;;;;;;5053585;28;20475;-77
2022/02/07 08:59:30;;;;;;;0.30;0.30;;;3.40;99.90;;;;;;5053692;28;20441;-77
2022/02/07 09:02:04;;;;;;;0.30;0.20;;;3.70;99.90;;;;;;5053626;28;20408;-77
2022/02/07 09:07:19;;;;;;;0.30;0.30;;;4.30;99.90;;;;;;5053481;28;20503;-77
2022/02/07 09:09:46;;;;;;;0.30;0.20;;;4.60;99.90;;;;;;5053515;28;20440;-78
2022/02/07 09:12:13;;;;;;;0.30;0.30;;;5.10;99.90;;;;;;5053463;28;20446;-78
2022/02/07 09:14:50;;;;;;;0.30;0.30;;;5.80;99.90;;;;;;5053102;28;20516;-78
2022/02/07 09:17:17;;;;;;;0.40;0.40;;;6.90;99.90;;;;;;5053869;28;20476;-78
2022/02/07 09:19:45;;;;;;;0.30;0.30;;;8.20;99.90;;;;;;5053419;28;20450;-78
2022/02/07 09:22:12;;;;;;;0.30;0.20;;;9.10;99.90;;;;;;5053336;28;20422;-78
2022/02/07 09:24:39;;;;;;;0.30;0.30;;;9.90;99.90;;;;;;5053308;28;20449;-78
2022/02/07 09:27:06;;;;;;;0.30;0.20;;;10.40;99.90;;;;;;5052727;28;20466;-78
2022/02/07 09:29:32;;;;;;;0.30;0.20;;;10.20;99.90;;;;;;5052891;28;20430;-78
2022/02/07 09:32:02;;;;;;;0.47;0.43;;;9.50;99.90;;;;;;5052854;28;20787;-78
2022/02/07 09:34:28;;;;;;;0.40;0.40;;;8.70;99.90;;;;;;5053190;28;20445;-78
2022/02/07 09:36:57;;;;;;;0.30;0.30;;;7.50;99.90;;;;;;5052845;28;20481;-78
2022/02/07 09:39:30;;;;;;;0.30;0.20;;;6.80;99.90;;;;;;5054540;28;20449;-78
2022/02/07 09:41:57;;;;;;;0.30;0.20;;;5.70;99.90;;;;;;5057312;28;20528;-77
2022/02/07 09:44:28;;;;;;;0.30;0.20;;;5.40;99.90;;;;;;5057327;28;20441;-77
2022/02/07 09:46:55;;;;;;;0.30;0.20;;;5.30;99.90;;;;;;5057179;28;20482;-77
2022/02/07 09:49:22;;;;;;;0.30;0.20;;;5.70;99.90;;;;;;5056835;28;20928;-77
2022/02/07 09:51:49;;;;;;;0.30;0.20;;;5.80;99.90;;;;;;5057134;28;20503;-77
2022/02/07 09:54:19;;;;;;;0.30;0.20;;;6.50;99.90;;;;;;5057132;28;20478;-77
2022/02/07 09:56:48;;;;;;;0.30;0.20;;;7.20;99.90;;;;;;5057011;28;20789;-77
2022/02/07 09:59:16;;;;;;;0.30;0.30;;;8.50;99.90;;;;;;5056743;28;20909;-77
2022/02/07 10:01:46;;;;;;;0.30;0.20;;;9.50;99.90;;;;;;5056696;28;20429;-77
2022/02/07 10:04:23;;;;;;;0.30;0.20;;;9.90;99.90;;;;;;5056964;28;20528;-78
2022/02/07 10:06:57;;;;;;;0.30;0.20;;;10.10;99.90;;;;;;5056576;28;20504;-78
2022/02/07 10:15:13;;;;;;;1.00;0.30;;;9.60;99.90;;;;;;5056464;28;20456;-77
2022/02/07 10:17:52;;;;;;;0.30;0.20;;;10.10;99.90;;;;;;5056353;28;20469;-77
2022/02/07 10:34:50;;;;;;;0.30;0.27;;;9.40;99.90;;;;;;5056136;28;20401;-78
2022/02/07 10:40:18;;;;;;;0.30;0.20;;;9.30;99.90;;;;;;5056304;28;20469;-78
2022/02/07 10:43:20;;;;;;;0.30;0.30;;;8.60;99.90;;;;;;5056244;28;20438;-78
2022/02/07 10:45:57;;;;;;;0.30;0.20;;;8.00;99.90;;;;;;5056100;28;20465;-78
2022/02/07 10:48:37;;;;;;;0.30;0.20;;;7.50;99.90;;;;;;5056122;28;20469;-78
2022/02/07 10:51:13;;;;;;;0.30;0.20;;;7.00;99.90;;;;;;5055485;28;20456;-78
2022/02/07 10:53:43;;;;;;;0.30;0.20;;;6.50;99.90;;;;;;5056072;28;20441;-78
2022/02/07 10:56:10;;;;;;;0.30;0.20;;;6.20;99.90;;;;;;5055796;28;20485;-78
2022/02/07 10:58:39;;;;;;;0.30;0.30;;;6.20;99.90;;;;;;5056035;28;20434;-78
2022/02/07 11:01:17;;;;;;;0.30;0.30;;;6.10;99.90;;;;;;5055895;28;20430;-78
2022/02/07 11:03:49;;;;;;;0.30;0.20;;;6.10;99.90;;;;;;5055890;28;20787;-78
2022/02/07 11:06:21;;;;;;;0.30;0.20;;;6.20;99.90;;;;;;5055738;28;20520;-78
2022/02/07 11:09:03;;;;;;;0.30;0.30;;;6.20;99.90;;;;;;5055487;28;20897;-78
2022/02/07 11:11:49;;;;;;;0.30;0.20;;;6.10;99.90;;;;;;5055415;28;20806;-78
2022/02/07 11:14:46;;;;;;;0.30;0.30;;;6.00;99.90;;;;;;5055680;28;20436;-78
2022/02/07 11:17:35;;;;;;;0.30;0.20;;;5.90;99.90;;;;;;5055558;28;20473;-78
2022/02/07 11:20:28;;;;;;;0.30;0.30;;;6.00;99.90;;;;;;5056079;28;20442;-78
2022/02/07 11:23:07;;;;;;;0.30;0.30;;;5.90;99.90;;;;;;5055225;28;20438;-78
2022/02/07 11:25:44;;;;;;;0.43;0.43;;;5.80;99.90;;;;;;5055316;28;20425;-78
2022/02/07 11:28:18;;;;;;;0.47;0.30;;;5.70;99.90;;;;;;5055423;28;20851;-78
2022/02/07 11:30:49;;;;;;;0.30;0.30;;;5.70;99.90;;;;;;5055330;28;20438;-78
2022/02/07 11:33:40;;;;;;;0.30;0.20;;;5.70;99.90;;;;;;5055281;28;20529;-78
2022/02/07 11:36:11;;;;;;;0.30;0.20;;;5.60;99.90;;;;;;5050896;28;20520;-78
2022/02/07 11:38:56;;;;;;;0.30;0.20;;;5.50;99.90;;;;;;5055185;28;20480;-78
2022/02/07 11:41:23;;;;;;;0.30;0.30;;;5.40;99.90;;;;;;5055188;28;20426;-78
2022/02/07 11:43:50;;;;;;;0.30;0.30;;;5.30;99.90;;;;;;5055125;28;20439;-78
2022/02/07 11:46:20;;;;;;;0.30;0.20;;;5.30;99.90;;;;;;5054993;28;20458;-78
2022/02/07 11:48:49;;;;;;;0.30;0.20;;;5.30;99.90;;;;;;5054674;28;20434;-78
2022/02/07 11:51:18;;;;;;;0.30;0.20;;;5.30;99.90;;;;;;5055374;28;20798;-79
2022/02/07 11:53:48;;;;;;;0.30;0.20;;;5.30;99.90;;;;;;5054921;28;20909;-78
2022/02/07 11:56:23;;;;;;;0.30;0.30;;;5.30;99.90;;;;;;5054738;28;20484;-78
2022/02/07 11:59:12;;;;;;;0.30;0.20;;;5.20;99.90;;;;;;5054526;28;20444;-78
2022/02/07 12:01:58;;;;;;;0.30;0.30;;;5.10;99.90;;;;;;5054295;28;20435;-78
2022/02/07 12:04:33;;;;;;;0.30;0.30;;;5.10;99.90;;;;;;5054763;28;20436;-78
2022/02/07 12:07:07;;;;;;;1.23;1.13;;;5.00;99.90;;;;;;5054589;28;20465;-78
2022/02/07 12:09:35;;;;;;;0.30;0.30;;;4.90;99.90;;;;;;5055214;28;20434;-78
2022/02/07 12:12:02;;;;;;;0.30;0.30;;;5.00;99.90;;;;;;5054611;28;20422;-78
2022/02/07 12:14:30;;;;;;;0.30;0.30;;;5.00;99.90;;;;;;5054241;28;20437;-78
2022/02/07 12:16:58;;;;;;;0.30;0.30;;;5.00;99.90;;;;;;5054324;28;20490;-78
2022/02/07 12:19:37;;;;;;;0.30;0.30;;;5.00;99.90;;;;;;5054392;28;20434;-78
2022/02/07 12:22:15;;;;;;;0.30;0.30;;;4.90;99.90;;;;;;5054393;28;20437;-78
2022/02/07 12:24:53;;;;;;;0.30;0.30;;;5.00;99.90;;;;;;5054043;28;20430;-78
2022/02/07 12:27:21;;;;;;;0.30;0.30;;;5.00;99.90;;;;;;5054169;28;20470;-78
2022/02/07 12:30:16;;;;;;;0.30;0.30;;;5.00;99.90;;;;;;5054198;28;20449;-78
2022/02/07 12:32:45;;;;;;;0.30;0.20;;;5.10;99.90;;;;;;5053851;28;20901;-79
2022/02/07 12:35:12;;;;;;;0.30;0.30;;;5.10;99.90;;;;;;5054093;28;20790;-79
2022/02/07 12:37:41;;;;;;;0.30;0.30;;;5.20;99.90;;;;;;5053589;28;20486;-79
2022/02/07 12:40:10;;;;;;;0.40;0.30;;;5.20;99.90;;;;;;5053734;28;20901;-78
2022/02/07 12:42:40;;;;;;;0.30;0.30;;;5.20;99.90;;;;;;5053691;28;20940;-78
2022/02/07 12:45:07;;;;;;;0.30;0.20;;;5.30;99.90;;;;;;5053653;28;20928;-78
2022/02/07 12:47:37;;;;;;;0.30;0.20;;;5.30;99.90;;;;;;5053531;28;20984;-78
2022/02/07 12:50:14;;;;;;;0.30;0.20;;;5.20;99.90;;;;;;5053611;28;20908;-78
2022/02/07 12:52:42;;;;;;;0.30;0.20;;;5.20;99.90;;;;;;5053826;28;20495;-78
2022/02/07 12:55:11;;;;;;;0.30;0.30;;;5.10;99.90;;;;;;5053505;28;20797;-78
2022/02/07 12:57:39;;;;;;;0.57;0.57;;;5.10;99.90;;;;;;5053677;28;20466;-78
2022/02/07 13:00:07;;;;;;;0.40;0.30;;;5.20;99.90;;;;;;5053682;28;20489;-78
2022/02/07 13:02:34;;;;;;;0.80;0.80;;;5.30;99.90;;;;;;5053699;28;20446;-78
2022/02/07 13:05:01;;;;;;;0.30;0.20;;;5.20;99.90;;;;;;5053410;28;20417;-78
2022/02/07 13:07:36;;;;;;;0.30;0.30;;;5.30;99.90;;;;;;5053519;28;20472;-78
2022/02/07 13:10:05;;;;;;;0.30;0.20;;;5.30;99.90;;;;;;5053558;28;20437;-77
2022/02/07 13:12:50;;;;;;;0.30;0.20;;;5.20;99.90;;;;;;5053520;28;20434;-78
2022/02/07 13:15:22;;;;;;;0.30;0.30;;;5.20;99.90;;;;;;5053132;28;20438;-78
2022/02/07 13:17:52;;;;;;;0.30;0.30;;;5.20;99.90;;;;;;5053092;28;20969;-78
2022/02/07 13:20:19;;;;;;;0.40;0.40;;;5.30;99.90;;;;;;5053113;28;20528;-78
2022/02/07 13:22:48;;;;;;;0.30;0.20;;;5.30;99.90;;;;;;5053070;28;20434;-78
2022/02/07 13:25:15;;;;;;;0.30;0.30;;;5.40;99.90;;;;;;5053069;28;20824;-78
2022/02/07 13:27:43;;;;;;;0.30;0.30;;;5.60;99.90;;;;;;5053256;28;20828;-78
2022/02/07 13:30:11;;;;;;;0.30;0.20;;;5.70;99.90;;;;;;5053029;28;20905;-78
2022/02/07 13:32:40;;;;;;;0.30;0.30;;;5.90;99.90;;;;;;5053244;28;20431;-78
2022/02/07 13:35:09;;;;;;;0.30;0.20;;;5.90;99.90;;;;;;5053278;28;20430;-78
2022/02/07 13:37:38;;;;;;;0.30;0.20;;;5.90;99.90;;;;;;5052680;28;20588;-78
2022/02/07 13:40:09;;;;;;;0.30;0.30;;;6.00;99.90;;;;;;5053451;28;20529;-78
2022/02/07 13:42:38;;;;;;;0.30;0.30;;;6.10;99.90;;;;;;5053180;28;20437;-78
2022/02/07 13:55:30;;;;;;;0.30;0.20;;;5.60;99.90;;;;;;5179693;22;20501;-78
2022/02/07 13:58:01;;;;;;;0.33;0.33;;;5.50;99.90;;;;;;5033111;28;20423;-78
2022/02/07 14:00:30;;;;;;;0.50;0.50;;;5.30;99.90;;;;;;5033080;28;20431;-78
2022/02/07 14:03:18;;;;;;;0.30;0.30;;;5.30;99.90;;;;;;5033102;28;20581;-78
2022/02/07 14:05:48;;;;;;;0.30;0.30;;;5.30;99.90;;;;;;5033013;28;20439;-78
2022/02/07 14:08:16;;;;;;;0.30;0.30;;;5.20;99.90;;;;;;5032706;28;20443;-78
2022/02/07 14:10:46;;;;;;;0.30;0.20;;;5.10;99.90;;;;;;5033011;28;20437;-78
2022/02/07 14:13:15;;;;;;;0.30;0.20;;;5.10;99.90;;;;;;5032965;28;20435;-78
2022/02/07 14:15:43;;;;;;;0.30;0.20;;;5.00;99.90;;;;;;5032803;28;20435;-78
2022/02/07 14:18:12;;;;;;;0.30;0.30;;;4.90;99.90;;;;;;5032981;28;20434;-78
2022/02/07 14:20:39;;;;;;;0.30;0.30;;;4.80;99.90;;;;;;5032788;28;20479;-77
2022/02/07 14:23:07;;;;;;;0.30;0.30;;;4.60;99.90;;;;;;5032601;28;20438;-77
2022/02/07 14:25:34;;;;;;;0.50;0.50;;;4.50;99.90;;;;;;5034254;28;20435;-77
2022/02/07 14:28:03;;;;;;;0.30;0.20;;;4.40;99.90;;;;;;5036549;28;20427;-78
2022/02/07 14:30:31;;;;;;;3.60;0.70;;;4.30;99.90;;;;;;5037090;28;20434;-78
2022/02/07 14:32:58;;;;;;;0.30;0.30;;;4.30;99.90;;;;;;5036472;28;20941;-77
2022/02/07 14:35:25;;;;;;;0.30;0.20;;;4.30;99.90;;;;;;5036445;28;20803;-77
2022/02/07 14:37:53;;;;;;;0.30;0.20;;;4.30;99.90;;;;;;5036294;28;20466;-77
2022/02/07 14:40:20;;;;;;;0.30;0.30;;;4.20;99.90;;;;;;5036321;28;20442;-77
2022/02/07 14:42:47;;;;;;;0.40;0.33;;;4.10;99.90;;;;;;5035970;28;20808;-77
2022/02/07 14:45:16;;;;;;;0.30;0.20;;;4.00;99.90;;;;;;5035957;28;20931;-77
2022/02/07 14:47:55;;;;;;;0.30;0.20;;;4.00;99.90;;;;;;5036166;28;20468;-77
2022/02/07 14:50:24;;;;;;;0.30;0.30;;;3.90;99.90;;;;;;5036191;28;20439;-78
2022/02/07 14:52:51;;;;;;;0.50;0.30;;;4.00;99.90;;;;;;5036119;28;20435;-77
2022/02/07 14:55:18;;;;;;;0.40;0.40;;;4.00;99.90;;;;;;5035609;28;20482;-77
2022/02/07 14:57:45;;;;;;;0.30;0.20;;;4.00;99.90;;;;;;5035854;28;20493;-77
2022/02/07 15:00:16;;;;;;;0.30;0.30;;;4.00;99.90;;;;;;5035971;28;20438;-77